sensor_id;sensor_type;location;lat;lon;timestamp;P1;durP1;ratioP1;P2;durP2;ratioP2
5937;SDS011;2994;51.220;4.412;2022-09-03T00:08:09;3.80;;;2.80;;
5937;SDS011;2994;51.220;4.412;2022-09-03T00:13:35;3.80;;;2.97;;
5937;SDS011;2994;51.220;4.412;2022-09-03T00:16:04;4.40;;;2.77;;
5937;SDS011;2994;51.220;4.412;2022-09-03T00:18:35;3.53;;;3.23;;
5937;SDS011;2994;51.220;4.412;2022-09-03T00:21:09;4.83;;;3.10;;
5937;SDS011;2994;51.220;4.412;2022-09-03T00:23:39;2.83;;;2.63;;
5937;SDS011;2994;51.220;4.412;2022-09-03T00:31:20;3.30;;;3.00;;
5937;SDS011;2994;51.220;4.412;2022-09-03T00:33:54;3.53;;;2.83;;
5937;SDS011;2994;51.220;4.412;2022-09-03T00:36:25;3.80;;;3.10;;
5937;SDS011;2994;51.220;4.412;2022-09-03T00:38:56;3.30;;;3.00;;
5937;SDS011;2994;51.220;4.412;2022-09-03T00:41:32;2.80;;;2.60;;
5937;SDS011;2994;51.220;4.412;2022-09-03T00:46:54;4.43;;;3.00;;
5937;SDS011;2994;51.220;4.412;2022-09-03T01:00:24;3.33;;;3.10;;
5937;SDS011;2994;51.220;4.412;2022-09-03T01:03:08;3.67;;;3.20;;
5937;SDS011;2994;51.220;4.412;2022-09-03T01:06:17;3.50;;;3.20;;
5937;SDS011;2994;51.220;4.412;2022-09-03T01:25:22;3.20;;;3.00;;
5937;SDS011;2994;51.220;4.412;2022-09-03T01:30:47;3.47;;;3.17;;
5937;SDS011;2994;51.220;4.412;2022-09-03T01:33:33;3.00;;;2.80;;
5937;SDS011;2994;51.220;4.412;2022-09-03T01:36:22;3.67;;;3.30;;
5937;SDS011;2994;51.220;4.412;2022-09-03T01:38:59;4.43;;;2.47;;
5937;SDS011;2994;51.220;4.412;2022-09-03T01:58:44;6.60;;;3.00;;
5937;SDS011;2994;51.220;4.412;2022-09-03T02:01:28;5.57;;;3.07;;
5937;SDS011;2994;51.220;4.412;2022-09-03T02:04:20;3.87;;;3.37;;
5937;SDS011;2994;51.220;4.412;2022-09-03T02:06:52;3.60;;;3.30;;
5937;SDS011;2994;51.220;4.412;2022-09-03T02:09:21;3.97;;;3.00;;
5937;SDS011;2994;51.220;4.412;2022-09-03T02:12:20;3.03;;;2.83;;
5937;SDS011;2994;51.220;4.412;2022-09-03T02:14:40;3.63;;;3.33;;
5937;SDS011;2994;51.220;4.412;2022-09-03T02:17:06;3.80;;;3.40;;
5937;SDS011;2994;51.220;4.412;2022-09-03T02:19:33;3.20;;;2.90;;
5937;SDS011;2994;51.220;4.412;2022-09-03T02:22:01;4.00;;;3.40;;
5937;SDS011;2994;51.220;4.412;2022-09-03T02:24:28;5.17;;;3.70;;
5937;SDS011;2994;51.220;4.412;2022-09-03T02:26:53;3.17;;;2.87;;
5937;SDS011;2994;51.220;4.412;2022-09-03T02:29:19;4.20;;;3.13;;
5937;SDS011;2994;51.220;4.412;2022-09-03T02:31:45;5.00;;;2.70;;
5937;SDS011;2994;51.220;4.412;2022-09-03T02:34:11;3.07;;;2.87;;
5937;SDS011;2994;51.220;4.412;2022-09-03T02:36:38;3.17;;;2.97;;
5937;SDS011;2994;51.220;4.412;2022-09-03T02:39:06;3.40;;;3.10;;
5937;SDS011;2994;51.220;4.412;2022-09-03T02:41:32;3.40;;;3.10;;
5937;SDS011;2994;51.220;4.412;2022-09-03T02:46:52;4.63;;;3.60;;
5937;SDS011;2994;51.220;4.412;2022-09-03T02:49:22;3.73;;;3.43;;
5937;SDS011;2994;51.220;4.412;2022-09-03T02:51:47;3.60;;;3.27;;
5937;SDS011;2994;51.220;4.412;2022-09-03T02:54:13;3.37;;;3.17;;
5937;SDS011;2994;51.220;4.412;2022-09-03T02:56:38;3.67;;;3.37;;
5937;SDS011;2994;51.220;4.412;2022-09-03T02:59:05;3.50;;;3.20;;
5937;SDS011;2994;51.220;4.412;2022-09-03T03:01:32;3.80;;;3.50;;
5937;SDS011;2994;51.220;4.412;2022-09-03T03:03:57;3.83;;;3.53;;
5937;SDS011;2994;51.220;4.412;2022-09-03T03:06:23;4.43;;;3.20;;
5937;SDS011;2994;51.220;4.412;2022-09-03T03:08:49;5.97;;;3.10;;
5937;SDS011;2994;51.220;4.412;2022-09-03T03:11:18;3.33;;;3.03;;
5937;SDS011;2994;51.220;4.412;2022-09-03T03:13:44;3.60;;;3.30;;
5937;SDS011;2994;51.220;4.412;2022-09-03T03:16:10;4.50;;;3.50;;
5937;SDS011;2994;51.220;4.412;2022-09-03T03:18:36;3.87;;;3.67;;
5937;SDS011;2994;51.220;4.412;2022-09-03T03:21:05;3.57;;;3.27;;
5937;SDS011;2994;51.220;4.412;2022-09-03T03:23:32;3.70;;;3.40;;
5937;SDS011;2994;51.220;4.412;2022-09-03T03:25:59;4.07;;;3.37;;
5937;SDS011;2994;51.220;4.412;2022-09-03T03:28:29;3.57;;;3.37;;
5937;SDS011;2994;51.220;4.412;2022-09-03T03:31:03;3.83;;;3.53;;
5937;SDS011;2994;51.220;4.412;2022-09-03T03:33:33;3.70;;;3.40;;
5937;SDS011;2994;51.220;4.412;2022-09-03T03:36:05;3.43;;;3.13;;
5937;SDS011;2994;51.220;4.412;2022-09-03T03:38:40;3.20;;;2.90;;
5937;SDS011;2994;51.220;4.412;2022-09-03T03:41:08;4.10;;;3.47;;
5937;SDS011;2994;51.220;4.412;2022-09-03T03:43:45;2.97;;;2.60;;
5937;SDS011;2994;51.220;4.412;2022-09-03T03:46:11;3.57;;;3.27;;
5937;SDS011;2994;51.220;4.412;2022-09-03T03:48:38;3.47;;;3.10;;
5937;SDS011;2994;51.220;4.412;2022-09-03T03:51:05;3.50;;;3.30;;
5937;SDS011;2994;51.220;4.412;2022-09-03T03:53:36;2.97;;;2.73;;
5937;SDS011;2994;51.220;4.412;2022-09-03T03:56:03;3.80;;;3.13;;
5937;SDS011;2994;51.220;4.412;2022-09-03T03:58:31;3.67;;;3.37;;
5937;SDS011;2994;51.220;4.412;2022-09-03T04:01:04;3.87;;;3.47;;
5937;SDS011;2994;51.220;4.412;2022-09-03T04:03:31;4.63;;;4.23;;
5937;SDS011;2994;51.220;4.412;2022-09-03T04:05:58;3.40;;;3.10;;
5937;SDS011;2994;51.220;4.412;2022-09-03T04:08:25;3.53;;;3.17;;
5937;SDS011;2994;51.220;4.412;2022-09-03T04:10:51;9.03;;;3.90;;
5937;SDS011;2994;51.220;4.412;2022-09-03T04:13:16;3.70;;;3.40;;
5937;SDS011;2994;51.220;4.412;2022-09-03T04:15:42;4.07;;;3.77;;
5937;SDS011;2994;51.220;4.412;2022-09-03T04:18:08;4.03;;;3.30;;
5937;SDS011;2994;51.220;4.412;2022-09-03T04:20:36;3.83;;;3.53;;
5937;SDS011;2994;51.220;4.412;2022-09-03T04:23:02;3.60;;;3.30;;
5937;SDS011;2994;51.220;4.412;2022-09-03T04:25:29;3.30;;;3.10;;
5937;SDS011;2994;51.220;4.412;2022-09-03T04:27:55;3.50;;;3.20;;
5937;SDS011;2994;51.220;4.412;2022-09-03T04:30:20;4.03;;;3.47;;
5937;SDS011;2994;51.220;4.412;2022-09-03T04:32:50;3.30;;;3.10;;
5937;SDS011;2994;51.220;4.412;2022-09-03T04:35:19;3.60;;;3.30;;
5937;SDS011;2994;51.220;4.412;2022-09-03T04:37:45;3.50;;;3.20;;
5937;SDS011;2994;51.220;4.412;2022-09-03T04:40:11;4.07;;;3.70;;
5937;SDS011;2994;51.220;4.412;2022-09-03T04:42:37;4.43;;;4.10;;
5937;SDS011;2994;51.220;4.412;2022-09-03T04:45:03;5.70;;;3.77;;
5937;SDS011;2994;51.220;4.412;2022-09-03T04:47:28;3.90;;;3.40;;
5937;SDS011;2994;51.220;4.412;2022-09-03T04:49:54;3.40;;;3.10;;
5937;SDS011;2994;51.220;4.412;2022-09-03T04:52:19;4.00;;;3.30;;
5937;SDS011;2994;51.220;4.412;2022-09-03T04:54:45;4.70;;;3.70;;
5937;SDS011;2994;51.220;4.412;2022-09-03T04:57:11;3.73;;;3.40;;
5937;SDS011;2994;51.220;4.412;2022-09-03T04:59:37;3.43;;;3.13;;
5937;SDS011;2994;51.220;4.412;2022-09-03T05:02:03;3.83;;;3.53;;
5937;SDS011;2994;51.220;4.412;2022-09-03T05:04:28;3.80;;;3.43;;
5937;SDS011;2994;51.220;4.412;2022-09-03T05:06:53;4.13;;;3.23;;
5937;SDS011;2994;51.220;4.412;2022-09-03T05:09:19;3.87;;;3.20;;
5937;SDS011;2994;51.220;4.412;2022-09-03T05:11:45;6.40;;;3.80;;
5937;SDS011;2994;51.220;4.412;2022-09-03T05:14:10;3.90;;;3.17;;
5937;SDS011;2994;51.220;4.412;2022-09-03T05:16:36;4.13;;;3.50;;
5937;SDS011;2994;51.220;4.412;2022-09-03T05:19:02;3.87;;;3.53;;
5937;SDS011;2994;51.220;4.412;2022-09-03T05:21:30;4.07;;;3.77;;
5937;SDS011;2994;51.220;4.412;2022-09-03T05:23:56;3.50;;;3.20;;
5937;SDS011;2994;51.220;4.412;2022-09-03T05:26:27;6.10;;;3.30;;
5937;SDS011;2994;51.220;4.412;2022-09-03T05:28:54;4.83;;;3.07;;
5937;SDS011;2994;51.220;4.412;2022-09-03T05:31:22;4.80;;;4.40;;
5937;SDS011;2994;51.220;4.412;2022-09-03T05:33:51;4.20;;;3.80;;
5937;SDS011;2994;51.220;4.412;2022-09-03T05:36:18;5.33;;;4.60;;
5937;SDS011;2994;51.220;4.412;2022-09-03T05:38:46;4.03;;;3.77;;
5937;SDS011;2994;51.220;4.412;2022-09-03T05:41:12;4.77;;;4.37;;
5937;SDS011;2994;51.220;4.412;2022-09-03T05:43:39;5.33;;;4.47;;
5937;SDS011;2994;51.220;4.412;2022-09-03T05:46:06;4.80;;;4.40;;
5937;SDS011;2994;51.220;4.412;2022-09-03T05:48:34;4.53;;;4.10;;
5937;SDS011;2994;51.220;4.412;2022-09-03T05:51:19;4.57;;;4.17;;
5937;SDS011;2994;51.220;4.412;2022-09-03T05:53:45;4.10;;;3.80;;
5937;SDS011;2994;51.220;4.412;2022-09-03T05:56:13;4.20;;;3.77;;
5937;SDS011;2994;51.220;4.412;2022-09-03T05:58:44;3.60;;;3.30;;
5937;SDS011;2994;51.220;4.412;2022-09-03T06:01:16;3.47;;;3.17;;
5937;SDS011;2994;51.220;4.412;2022-09-03T06:03:46;5.77;;;3.53;;
5937;SDS011;2994;51.220;4.412;2022-09-03T06:06:18;3.87;;;3.37;;
5937;SDS011;2994;51.220;4.412;2022-09-03T06:08:48;4.33;;;3.90;;
5937;SDS011;2994;51.220;4.412;2022-09-03T06:11:15;3.77;;;3.20;;
5937;SDS011;2994;51.220;4.412;2022-09-03T06:13:41;3.60;;;3.30;;
5937;SDS011;2994;51.220;4.412;2022-09-03T06:16:06;4.90;;;3.20;;
5937;SDS011;2994;51.220;4.412;2022-09-03T06:18:34;3.70;;;3.40;;
5937;SDS011;2994;51.220;4.412;2022-09-03T06:21:00;4.40;;;4.00;;
5937;SDS011;2994;51.220;4.412;2022-09-03T06:23:27;5.33;;;4.00;;
5937;SDS011;2994;51.220;4.412;2022-09-03T06:26:07;5.37;;;4.63;;
5937;SDS011;2994;51.220;4.412;2022-09-03T06:28:37;5.13;;;4.40;;
5937;SDS011;2994;51.220;4.412;2022-09-03T06:31:06;4.90;;;4.20;;
5937;SDS011;2994;51.220;4.412;2022-09-03T06:33:33;4.73;;;4.37;;
5937;SDS011;2994;51.220;4.412;2022-09-03T06:36:00;4.80;;;4.40;;
5937;SDS011;2994;51.220;4.412;2022-09-03T06:38:31;4.50;;;4.10;;
5937;SDS011;2994;51.220;4.412;2022-09-03T06:41:02;5.13;;;4.60;;
5937;SDS011;2994;51.220;4.412;2022-09-03T06:43:30;5.23;;;4.40;;
5937;SDS011;2994;51.220;4.412;2022-09-03T06:48:25;4.57;;;4.17;;
5937;SDS011;2994;51.220;4.412;2022-09-03T06:50:55;10.03;;;4.40;;
5937;SDS011;2994;51.220;4.412;2022-09-03T06:53:25;4.53;;;4.00;;
5937;SDS011;2994;51.220;4.412;2022-09-03T06:55:56;4.10;;;3.70;;
5937;SDS011;2994;51.220;4.412;2022-09-03T06:58:24;5.47;;;3.37;;
5937;SDS011;2994;51.220;4.412;2022-09-03T07:00:53;4.77;;;4.13;;
5937;SDS011;2994;51.220;4.412;2022-09-03T07:03:19;7.60;;;4.70;;
5937;SDS011;2994;51.220;4.412;2022-09-03T07:05:45;4.20;;;3.20;;
5937;SDS011;2994;51.220;4.412;2022-09-03T07:08:11;3.90;;;3.60;;
5937;SDS011;2994;51.220;4.412;2022-09-03T07:10:37;4.30;;;3.90;;
5937;SDS011;2994;51.220;4.412;2022-09-03T07:13:03;4.33;;;4.03;;
5937;SDS011;2994;51.220;4.412;2022-09-03T07:15:32;4.50;;;4.10;;
5937;SDS011;2994;51.220;4.412;2022-09-03T07:17:57;4.67;;;4.10;;
5937;SDS011;2994;51.220;4.412;2022-09-03T07:20:23;4.90;;;4.50;;
5937;SDS011;2994;51.220;4.412;2022-09-03T07:22:49;4.67;;;4.30;;
5937;SDS011;2994;51.220;4.412;2022-09-03T07:25:14;5.37;;;4.87;;
5937;SDS011;2994;51.220;4.412;2022-09-03T07:27:40;5.40;;;4.90;;
5937;SDS011;2994;51.220;4.412;2022-09-03T07:30:05;6.60;;;4.80;;
5937;SDS011;2994;51.220;4.412;2022-09-03T07:32:34;5.40;;;4.30;;
5937;SDS011;2994;51.220;4.412;2022-09-03T07:35:01;5.63;;;4.90;;
5937;SDS011;2994;51.220;4.412;2022-09-03T07:37:27;5.03;;;4.43;;
5937;SDS011;2994;51.220;4.412;2022-09-03T07:39:52;5.93;;;4.90;;
5937;SDS011;2994;51.220;4.412;2022-09-03T07:42:18;5.57;;;4.30;;
5937;SDS011;2994;51.220;4.412;2022-09-03T07:44:44;5.33;;;4.60;;
5937;SDS011;2994;51.220;4.412;2022-09-03T07:47:10;5.60;;;4.20;;
5937;SDS011;2994;51.220;4.412;2022-09-03T07:49:37;4.23;;;3.90;;
5937;SDS011;2994;51.220;4.412;2022-09-03T07:52:02;4.53;;;3.80;;
5937;SDS011;2994;51.220;4.412;2022-09-03T07:54:28;8.43;;;4.50;;
5937;SDS011;2994;51.220;4.412;2022-09-03T07:56:53;6.07;;;4.27;;
5937;SDS011;2994;51.220;4.412;2022-09-03T07:59:19;4.60;;;4.03;;
5937;SDS011;2994;51.220;4.412;2022-09-03T08:01:46;5.30;;;4.20;;
5937;SDS011;2994;51.220;4.412;2022-09-03T08:04:12;5.17;;;3.90;;
5937;SDS011;2994;51.220;4.412;2022-09-03T08:06:37;5.67;;;4.50;;
5937;SDS011;2994;51.220;4.412;2022-09-03T08:09:04;4.50;;;4.10;;
5937;SDS011;2994;51.220;4.412;2022-09-03T08:11:32;4.43;;;3.83;;
5937;SDS011;2994;51.220;4.412;2022-09-03T08:14:02;5.10;;;4.30;;
5937;SDS011;2994;51.220;4.412;2022-09-03T08:16:34;4.63;;;4.23;;
5937;SDS011;2994;51.220;4.412;2022-09-03T08:19:05;5.63;;;3.90;;
5937;SDS011;2994;51.220;4.412;2022-09-03T08:21:31;4.90;;;4.40;;
5937;SDS011;2994;51.220;4.412;2022-09-03T08:23:57;4.23;;;3.83;;
5937;SDS011;2994;51.220;4.412;2022-09-03T08:26:26;4.80;;;3.77;;
5937;SDS011;2994;51.220;4.412;2022-09-03T08:28:54;4.37;;;3.90;;
5937;SDS011;2994;51.220;4.412;2022-09-03T08:31:21;5.20;;;4.07;;
5937;SDS011;2994;51.220;4.412;2022-09-03T08:33:49;3.93;;;3.53;;
5937;SDS011;2994;51.220;4.412;2022-09-03T08:36:17;7.60;;;4.53;;
5937;SDS011;2994;51.220;4.412;2022-09-03T08:38:46;8.73;;;4.90;;
5937;SDS011;2994;51.220;4.412;2022-09-03T08:47:09;4.63;;;4.00;;
5937;SDS011;2994;51.220;4.412;2022-09-03T08:49:43;6.90;;;4.93;;
5937;SDS011;2994;51.220;4.412;2022-09-03T08:52:26;5.43;;;4.10;;
5937;SDS011;2994;51.220;4.412;2022-09-03T08:57:54;4.27;;;3.97;;
5937;SDS011;2994;51.220;4.412;2022-09-03T09:00:21;4.43;;;3.50;;
5937;SDS011;2994;51.220;4.412;2022-09-03T09:02:50;4.40;;;3.43;;
5937;SDS011;2994;51.220;4.412;2022-09-03T09:13:53;4.97;;;3.60;;
5937;SDS011;2994;51.220;4.412;2022-09-03T09:24:23;5.93;;;3.23;;
5937;SDS011;2994;51.220;4.412;2022-09-03T09:26:52;4.43;;;3.60;;
5937;SDS011;2994;51.220;4.412;2022-09-03T09:29:24;7.63;;;3.60;;
5937;SDS011;2994;51.220;4.412;2022-09-03T09:31:53;4.30;;;3.90;;
5937;SDS011;2994;51.220;4.412;2022-09-03T09:34:19;5.00;;;3.50;;
5937;SDS011;2994;51.220;4.412;2022-09-03T09:36:48;4.10;;;3.67;;
5937;SDS011;2994;51.220;4.412;2022-09-03T09:39:17;4.00;;;3.60;;
5937;SDS011;2994;51.220;4.412;2022-09-03T09:41:53;5.60;;;3.90;;
5937;SDS011;2994;51.220;4.412;2022-09-03T09:44:32;4.33;;;3.73;;
5937;SDS011;2994;51.220;4.412;2022-09-03T09:52:18;5.07;;;3.67;;
5937;SDS011;2994;51.220;4.412;2022-09-03T09:54:49;4.27;;;3.40;;
5937;SDS011;2994;51.220;4.412;2022-09-03T09:57:21;4.43;;;3.30;;
5937;SDS011;2994;51.220;4.412;2022-09-03T09:59:48;4.00;;;3.60;;
5937;SDS011;2994;51.220;4.412;2022-09-03T10:02:26;4.20;;;3.80;;
5937;SDS011;2994;51.220;4.412;2022-09-03T10:04:54;4.00;;;3.70;;
5937;SDS011;2994;51.220;4.412;2022-09-03T10:07:32;4.20;;;3.40;;
5937;SDS011;2994;51.220;4.412;2022-09-03T10:10:03;3.80;;;3.50;;
5937;SDS011;2994;51.220;4.412;2022-09-03T10:18:01;3.07;;;2.87;;
5937;SDS011;2994;51.220;4.412;2022-09-03T10:20:43;3.90;;;3.60;;
5937;SDS011;2994;51.220;4.412;2022-09-03T10:23:25;4.80;;;3.70;;
5937;SDS011;2994;51.220;4.412;2022-09-03T10:28:23;4.70;;;4.30;;
5937;SDS011;2994;51.220;4.412;2022-09-03T10:31:01;4.20;;;3.90;;
5937;SDS011;2994;51.220;4.412;2022-09-03T10:33:55;5.43;;;3.67;;
5937;SDS011;2994;51.220;4.412;2022-09-03T10:50:15;3.73;;;3.40;;
5937;SDS011;2994;51.220;4.412;2022-09-03T11:02:00;4.23;;;3.93;;
5937;SDS011;2994;51.220;4.412;2022-09-03T11:07:06;4.63;;;4.03;;
5937;SDS011;2994;51.220;4.412;2022-09-03T11:12:37;4.10;;;3.80;;
5937;SDS011;2994;51.220;4.412;2022-09-03T11:17:54;4.73;;;4.43;;
5937;SDS011;2994;51.220;4.412;2022-09-03T11:20:25;5.47;;;4.40;;
5937;SDS011;2994;51.220;4.412;2022-09-03T11:22:57;4.23;;;3.83;;
5937;SDS011;2994;51.220;4.412;2022-09-03T11:25:29;4.33;;;3.93;;
5937;SDS011;2994;51.220;4.412;2022-09-03T11:28:11;4.60;;;4.20;;
5937;SDS011;2994;51.220;4.412;2022-09-03T11:30:54;4.33;;;3.93;;
5937;SDS011;2994;51.220;4.412;2022-09-03T11:33:26;4.30;;;3.93;;
5937;SDS011;2994;51.220;4.412;2022-09-03T11:35:56;4.20;;;3.80;;
5937;SDS011;2994;51.220;4.412;2022-09-03T11:38:28;4.60;;;4.00;;
5937;SDS011;2994;51.220;4.412;2022-09-03T11:41:21;4.97;;;4.63;;
5937;SDS011;2994;51.220;4.412;2022-09-03T11:43:50;4.43;;;4.13;;
5937;SDS011;2994;51.220;4.412;2022-09-03T11:48:51;4.97;;;4.57;;
5937;SDS011;2994;51.220;4.412;2022-09-03T11:51:34;5.27;;;4.20;;
5937;SDS011;2994;51.220;4.412;2022-09-03T11:54:03;4.40;;;4.10;;
5937;SDS011;2994;51.220;4.412;2022-09-03T11:56:49;4.87;;;4.57;;
5937;SDS011;2994;51.220;4.412;2022-09-03T11:59:17;4.80;;;4.40;;
5937;SDS011;2994;51.220;4.412;2022-09-03T12:01:49;5.10;;;4.63;;
5937;SDS011;2994;51.220;4.412;2022-09-03T12:04:21;4.53;;;4.23;;
5937;SDS011;2994;51.220;4.412;2022-09-03T12:09:47;4.90;;;4.50;;
5937;SDS011;2994;51.220;4.412;2022-09-03T12:18:08;4.73;;;4.27;;
5937;SDS011;2994;51.220;4.412;2022-09-03T12:20:44;4.00;;;3.70;;
5937;SDS011;2994;51.220;4.412;2022-09-03T12:26:22;5.00;;;4.67;;
5937;SDS011;2994;51.220;4.412;2022-09-03T12:28:50;4.73;;;4.27;;
5937;SDS011;2994;51.220;4.412;2022-09-03T12:31:22;4.47;;;4.07;;
5937;SDS011;2994;51.220;4.412;2022-09-03T12:33:54;4.20;;;3.80;;
5937;SDS011;2994;51.220;4.412;2022-09-03T12:36:23;4.50;;;4.20;;
5937;SDS011;2994;51.220;4.412;2022-09-03T12:38:49;4.53;;;4.13;;
5937;SDS011;2994;51.220;4.412;2022-09-03T12:41:25;3.80;;;3.50;;
5937;SDS011;2994;51.220;4.412;2022-09-03T12:43:56;4.43;;;4.13;;
5937;SDS011;2994;51.220;4.412;2022-09-03T12:46:32;4.73;;;4.33;;
5937;SDS011;2994;51.220;4.412;2022-09-03T12:48:59;5.20;;;4.70;;
5937;SDS011;2994;51.220;4.412;2022-09-03T12:51:35;4.80;;;4.40;;
5937;SDS011;2994;51.220;4.412;2022-09-03T12:54:05;4.17;;;3.83;;
5937;SDS011;2994;51.220;4.412;2022-09-03T12:56:38;4.33;;;3.93;;
5937;SDS011;2994;51.220;4.412;2022-09-03T12:59:07;4.70;;;4.30;;
5937;SDS011;2994;51.220;4.412;2022-09-03T13:01:41;4.03;;;3.70;;
5937;SDS011;2994;51.220;4.412;2022-09-03T13:04:12;4.80;;;4.40;;
5937;SDS011;2994;51.220;4.412;2022-09-03T13:06:52;5.23;;;4.83;;
5937;SDS011;2994;51.220;4.412;2022-09-03T13:09:27;4.80;;;4.30;;
5937;SDS011;2994;51.220;4.412;2022-09-03T13:11:55;4.87;;;4.47;;
5937;SDS011;2994;51.220;4.412;2022-09-03T13:14:23;4.17;;;3.87;;
5937;SDS011;2994;51.220;4.412;2022-09-03T13:16:53;4.83;;;4.43;;
5937;SDS011;2994;51.220;4.412;2022-09-03T13:30:21;4.83;;;4.53;;
5937;SDS011;2994;51.220;4.412;2022-09-03T13:33:14;4.20;;;3.90;;
5937;SDS011;2994;51.220;4.412;2022-09-03T13:35:54;5.20;;;4.80;;
5937;SDS011;2994;51.220;4.412;2022-09-03T13:38:34;5.47;;;5.00;;
5937;SDS011;2994;51.220;4.412;2022-09-03T13:41:13;5.20;;;4.70;;
5937;SDS011;2994;51.220;4.412;2022-09-03T13:43:55;5.03;;;4.63;;
5937;SDS011;2994;51.220;4.412;2022-09-03T13:52:38;5.17;;;4.77;;
5937;SDS011;2994;51.220;4.412;2022-09-03T13:55:42;4.30;;;4.00;;
5937;SDS011;2994;51.220;4.412;2022-09-03T13:58:23;4.97;;;4.47;;
5937;SDS011;2994;51.220;4.412;2022-09-03T14:01:25;4.33;;;3.93;;
5937;SDS011;2994;51.220;4.412;2022-09-03T14:04:01;4.40;;;4.10;;
5937;SDS011;2994;51.220;4.412;2022-09-03T14:06:40;4.40;;;4.00;;
5937;SDS011;2994;51.220;4.412;2022-09-03T14:12:03;4.90;;;4.50;;
5937;SDS011;2994;51.220;4.412;2022-09-03T14:14:48;4.50;;;4.10;;
5937;SDS011;2994;51.220;4.412;2022-09-03T14:17:32;4.23;;;3.93;;
5937;SDS011;2994;51.220;4.412;2022-09-03T14:20:27;3.83;;;3.53;;
5937;SDS011;2994;51.220;4.412;2022-09-03T14:22:58;3.93;;;3.63;;
5937;SDS011;2994;51.220;4.412;2022-09-03T14:25:51;4.20;;;3.90;;
5937;SDS011;2994;51.220;4.412;2022-09-03T14:28:32;5.40;;;3.70;;
5937;SDS011;2994;51.220;4.412;2022-09-03T14:31:09;3.80;;;3.50;;
5937;SDS011;2994;51.220;4.412;2022-09-03T14:36:22;4.03;;;3.63;;
5937;SDS011;2994;51.220;4.412;2022-09-03T14:51:48;4.30;;;4.00;;
5937;SDS011;2994;51.220;4.412;2022-09-03T15:02:45;4.67;;;4.27;;
5937;SDS011;2994;51.220;4.412;2022-09-03T15:11:28;4.47;;;4.07;;
5937;SDS011;2994;51.220;4.412;2022-09-03T15:14:02;4.63;;;4.20;;
5937;SDS011;2994;51.220;4.412;2022-09-03T15:30:17;4.83;;;4.43;;
5937;SDS011;2994;51.220;4.412;2022-09-03T15:41:36;5.07;;;4.57;;
5937;SDS011;2994;51.220;4.412;2022-09-03T15:44:16;4.93;;;4.43;;
5937;SDS011;2994;51.220;4.412;2022-09-03T15:54:55;5.47;;;5.03;;
5937;SDS011;2994;51.220;4.412;2022-09-03T15:57:25;4.30;;;4.00;;
5937;SDS011;2994;51.220;4.412;2022-09-03T16:00:12;4.60;;;4.10;;
5937;SDS011;2994;51.220;4.412;2022-09-03T16:02:46;4.47;;;4.13;;
5937;SDS011;2994;51.220;4.412;2022-09-03T16:05:19;5.43;;;4.93;;
5937;SDS011;2994;51.220;4.412;2022-09-03T16:11:12;4.40;;;4.00;;
5937;SDS011;2994;51.220;4.412;2022-09-03T16:13:42;4.80;;;4.40;;
5937;SDS011;2994;51.220;4.412;2022-09-03T16:21:53;4.93;;;4.53;;
5937;SDS011;2994;51.220;4.412;2022-09-03T16:27:32;4.70;;;4.30;;
5937;SDS011;2994;51.220;4.412;2022-09-03T16:42:51;4.57;;;4.17;;
5937;SDS011;2994;51.220;4.412;2022-09-03T16:51:04;5.37;;;4.93;;
5937;SDS011;2994;51.220;4.412;2022-09-03T17:13:12;5.83;;;5.33;;
5937;SDS011;2994;51.220;4.412;2022-09-03T17:18:34;6.83;;;6.20;;
5937;SDS011;2994;51.220;4.412;2022-09-03T17:21:17;5.97;;;5.47;;
5937;SDS011;2994;51.220;4.412;2022-09-03T17:24:16;6.30;;;5.20;;
5937;SDS011;2994;51.220;4.412;2022-09-03T17:27:04;6.37;;;5.73;;
5937;SDS011;2994;51.220;4.412;2022-09-03T17:44:03;6.83;;;6.23;;
5937;SDS011;2994;51.220;4.412;2022-09-03T17:49:07;5.97;;;5.40;;
5937;SDS011;2994;51.220;4.412;2022-09-03T17:54:40;5.13;;;4.73;;
5937;SDS011;2994;51.220;4.412;2022-09-03T17:57:31;5.20;;;4.70;;
5937;SDS011;2994;51.220;4.412;2022-09-03T18:00:07;3.90;;;3.60;;
5937;SDS011;2994;51.220;4.412;2022-09-03T18:02:38;5.23;;;4.83;;
5937;SDS011;2994;51.220;4.412;2022-09-03T18:05:27;5.30;;;4.83;;
5937;SDS011;2994;51.220;4.412;2022-09-03T18:16:33;4.20;;;3.80;;
5937;SDS011;2994;51.220;4.412;2022-09-03T18:21:32;5.60;;;5.10;;
5937;SDS011;2994;51.220;4.412;2022-09-03T18:24:27;6.70;;;6.10;;
5937;SDS011;2994;51.220;4.412;2022-09-03T18:30:37;6.40;;;5.80;;
5937;SDS011;2994;51.220;4.412;2022-09-03T18:33:25;7.20;;;5.07;;
5937;SDS011;2994;51.220;4.412;2022-09-03T18:36:10;6.77;;;5.03;;
5937;SDS011;2994;51.220;4.412;2022-09-03T18:39:02;6.50;;;5.47;;
5937;SDS011;2994;51.220;4.412;2022-09-03T18:45:18;6.43;;;5.83;;
5937;SDS011;2994;51.220;4.412;2022-09-03T18:51:34;5.53;;;5.03;;
5937;SDS011;2994;51.220;4.412;2022-09-03T18:57:56;5.40;;;4.90;;
5937;SDS011;2994;51.220;4.412;2022-09-03T19:00:54;5.87;;;5.27;;
5937;SDS011;2994;51.220;4.412;2022-09-03T19:04:03;7.07;;;5.37;;
5937;SDS011;2994;51.220;4.412;2022-09-03T19:06:59;7.20;;;4.90;;
5937;SDS011;2994;51.220;4.412;2022-09-03T19:09:53;5.57;;;5.03;;
5937;SDS011;2994;51.220;4.412;2022-09-03T19:15:44;5.73;;;5.23;;
5937;SDS011;2994;51.220;4.412;2022-09-03T19:22:05;5.03;;;4.53;;
5937;SDS011;2994;51.220;4.412;2022-09-03T19:24:52;5.77;;;4.60;;
5937;SDS011;2994;51.220;4.412;2022-09-03T19:27:50;5.57;;;5.07;;
5937;SDS011;2994;51.220;4.412;2022-09-03T19:43:38;5.73;;;5.23;;
5937;SDS011;2994;51.220;4.412;2022-09-03T19:46:48;5.53;;;5.07;;
5937;SDS011;2994;51.220;4.412;2022-09-03T19:55:35;5.50;;;5.00;;
5937;SDS011;2994;51.220;4.412;2022-09-03T19:58:30;5.93;;;5.33;;
5937;SDS011;2994;51.220;4.412;2022-09-03T20:01:17;5.50;;;5.00;;
5937;SDS011;2994;51.220;4.412;2022-09-03T20:04:13;6.23;;;5.67;;
5937;SDS011;2994;51.220;4.412;2022-09-03T20:06:59;9.63;;;6.40;;
5937;SDS011;2994;51.220;4.412;2022-09-03T20:09:46;7.30;;;6.60;;
5937;SDS011;2994;51.220;4.412;2022-09-03T20:12:33;6.53;;;5.70;;
5937;SDS011;2994;51.220;4.412;2022-09-03T20:15:06;5.00;;;4.53;;
5937;SDS011;2994;51.220;4.412;2022-09-03T20:20:22;4.67;;;4.27;;
5937;SDS011;2994;51.220;4.412;2022-09-03T20:23:29;4.73;;;4.17;;
5937;SDS011;2994;51.220;4.412;2022-09-03T20:26:29;4.50;;;4.10;;
5937;SDS011;2994;51.220;4.412;2022-09-03T20:29:13;4.53;;;4.13;;
5937;SDS011;2994;51.220;4.412;2022-09-03T20:37:04;4.67;;;4.37;;
5937;SDS011;2994;51.220;4.412;2022-09-03T20:42:19;4.93;;;4.53;;
5937;SDS011;2994;51.220;4.412;2022-09-03T20:48:31;3.90;;;3.60;;
5937;SDS011;2994;51.220;4.412;2022-09-03T20:51:13;4.67;;;4.27;;
5937;SDS011;2994;51.220;4.412;2022-09-03T20:59:28;4.90;;;4.50;;
5937;SDS011;2994;51.220;4.412;2022-09-03T21:02:00;4.10;;;3.80;;
5937;SDS011;2994;51.220;4.412;2022-09-03T21:13:11;4.50;;;4.10;;
5937;SDS011;2994;51.220;4.412;2022-09-03T21:26:44;4.70;;;4.30;;
5937;SDS011;2994;51.220;4.412;2022-09-03T21:29:23;4.97;;;4.50;;
5937;SDS011;2994;51.220;4.412;2022-09-03T21:32:04;5.60;;;4.47;;
5937;SDS011;2994;51.220;4.412;2022-09-03T21:34:40;5.13;;;4.73;;
5937;SDS011;2994;51.220;4.412;2022-09-03T21:37:11;5.10;;;4.70;;
5937;SDS011;2994;51.220;4.412;2022-09-03T21:39:42;5.53;;;5.03;;
5937;SDS011;2994;51.220;4.412;2022-09-03T21:42:29;6.20;;;5.23;;
5937;SDS011;2994;51.220;4.412;2022-09-03T21:48:08;5.27;;;4.87;;
5937;SDS011;2994;51.220;4.412;2022-09-03T22:01:28;5.77;;;5.03;;
5937;SDS011;2994;51.220;4.412;2022-09-03T22:04:08;6.03;;;5.43;;
5937;SDS011;2994;51.220;4.412;2022-09-03T22:09:04;5.17;;;4.67;;
5937;SDS011;2994;51.220;4.412;2022-09-03T22:14:22;6.60;;;6.07;;
5937;SDS011;2994;51.220;4.412;2022-09-03T22:19:17;5.83;;;5.33;;
5937;SDS011;2994;51.220;4.412;2022-09-03T22:27:34;5.80;;;5.30;;
5937;SDS011;2994;51.220;4.412;2022-09-03T22:30:13;6.10;;;5.33;;
5937;SDS011;2994;51.220;4.412;2022-09-03T22:35:47;5.90;;;5.40;;
5937;SDS011;2994;51.220;4.412;2022-09-03T22:46:36;6.83;;;6.13;;
5937;SDS011;2994;51.220;4.412;2022-09-03T22:49:40;6.93;;;6.23;;
5937;SDS011;2994;51.220;4.412;2022-09-03T22:52:28;5.80;;;5.30;;
5937;SDS011;2994;51.220;4.412;2022-09-03T22:55:05;6.53;;;5.93;;
5937;SDS011;2994;51.220;4.412;2022-09-03T22:57:35;6.23;;;5.70;;
5937;SDS011;2994;51.220;4.412;2022-09-03T23:00:05;6.80;;;6.17;;
5937;SDS011;2994;51.220;4.412;2022-09-03T23:02:33;7.80;;;5.47;;
5937;SDS011;2994;51.220;4.412;2022-09-03T23:05:08;5.60;;;5.10;;
5937;SDS011;2994;51.220;4.412;2022-09-03T23:08:00;6.30;;;5.70;;
5937;SDS011;2994;51.220;4.412;2022-09-03T23:13:35;6.27;;;5.77;;